Time;durP1;ratioP1;P1;durP2;ratioP2;P2;SDS_P1;SDS_P2;PMS_P1;PMS_P2;Temp;Humidity;BMP_temperature;BMP_pressure;BME280_temperature;BME280_humidity;BME280_pressure;Samples;Min_cycle;Max_cycle;Signal;HPM_P1;HPM_P2
2023/11/30 00:01:59;;;;;;;2.42;1.92;;;5.80;92.70;;;;;;4995532;28;20219;-45
2023/11/30 00:04:27;;;;;;;2.42;1.70;;;5.80;92.70;;;;;;4994093;28;20595;-47
2023/11/30 00:06:55;;;;;;;2.35;1.63;;;5.80;92.70;;;;;;4991617;28;20774;-46
2023/11/30 00:09:23;;;;;;;2.05;1.83;;;5.80;92.70;;;;;;5002627;28;20240;-45
2023/11/30 00:11:54;;;;;;;2.42;2.22;;;5.80;92.70;;;;;;4993381;28;20292;-46
2023/11/30 00:14:22;;;;;;;3.15;2.17;;;5.80;92.70;;;;;;5002466;28;20201;-45
2023/11/30 00:16:52;;;;;;;2.80;1.55;;;5.80;92.70;;;;;;4997375;28;20640;-45
2023/11/30 00:19:20;;;;;;;2.47;2.28;;;5.80;92.70;;;;;;4998924;28;20194;-47
2023/11/30 00:21:48;;;;;;;2.72;1.92;;;5.80;92.70;;;;;;4996704;28;20656;-47
2023/11/30 00:24:19;;;;;;;2.55;2.25;;;5.80;92.70;;;;;;4998568;28;20265;-43
2023/11/30 00:26:47;;;;;;;2.90;2.40;;;5.80;92.70;;;;;;4991247;28;20226;-47
2023/11/30 00:29:15;;;;;;;2.35;2.00;;;5.70;92.70;;;;;;4999300;28;20194;-44
2023/11/30 00:31:43;;;;;;;3.20;2.00;;;5.70;92.60;;;;;;4981362;28;20507;-44
2023/11/30 00:34:20;;;;;;;2.00;1.80;;;5.80;92.70;;;;;;4994250;28;20198;-47
2023/11/30 00:36:48;;;;;;;2.40;2.20;;;5.70;92.70;;;;;;4990736;28;20318;-48
2023/11/30 00:39:16;;;;;;;2.30;2.10;;;5.70;92.70;;;;;;4999562;28;20183;-47
2023/11/30 00:41:44;;;;;;;2.70;2.17;;;5.80;92.70;;;;;;4993067;28;20245;-45
2023/11/30 00:44:12;;;;;;;2.03;1.83;;;5.70;92.70;;;;;;4978606;28;20201;-46
2023/11/30 00:46:40;;;;;;;3.22;2.22;;;5.80;92.70;;;;;;4999378;28;20222;-45
2023/11/30 00:49:09;;;;;;;2.30;2.10;;;5.70;92.60;;;;;;4998669;28;20206;-45
2023/11/30 00:51:38;;;;;;;2.58;2.20;;;5.70;92.60;;;;;;4999510;28;20703;-45
2023/11/30 00:54:06;;;;;;;2.00;1.70;;;5.70;92.60;;;;;;4999893;28;20763;-44
2023/11/30 00:56:34;;;;;;;2.38;1.95;;;5.70;92.70;;;;;;4991877;28;20218;-46
2023/11/30 00:59:02;;;;;;;3.20;2.03;;;5.70;92.60;;;;;;4999585;28;20332;-47
2023/11/30 01:01:30;;;;;;;2.30;1.88;;;5.70;92.60;;;;;;4988028;28;20325;-44
2023/11/30 01:03:58;;;;;;;2.47;1.80;;;5.70;92.70;;;;;;4985855;28;20201;-47
2023/11/30 01:06:26;;;;;;;2.13;1.80;;;5.70;92.60;;;;;;5001287;28;20221;-47
2023/11/30 01:08:57;;;;;;;2.35;1.42;;;5.70;92.60;;;;;;4998808;28;20222;-46
2023/11/30 01:11:24;;;;;;;2.03;1.83;;;5.70;92.70;;;;;;4997416;28;20222;-45
2023/11/30 01:13:54;;;;;;;1.95;1.65;;;5.70;92.70;;;;;;4993576;28;20206;-47
2023/11/30 01:16:25;;;;;;;2.40;1.85;;;5.70;92.70;;;;;;5005459;28;20252;-46
2023/11/30 01:18:53;;;;;;;2.53;2.03;;;5.70;92.60;;;;;;4980019;28;20229;-46
2023/11/30 01:21:21;;;;;;;3.08;2.05;;;5.70;92.60;;;;;;4983418;28;20210;-47
2023/11/30 01:23:49;;;;;;;2.20;1.70;;;5.70;92.60;;;;;;4986408;28;20225;-46
2023/11/30 01:26:19;;;;;;;3.83;2.28;;;5.70;92.60;;;;;;4979195;28;20644;-46
2023/11/30 01:28:49;;;;;;;2.35;1.92;;;5.70;93.10;;;;;;5001103;28;20217;-46
2023/11/30 01:31:17;;;;;;;1.80;1.40;;;5.70;92.70;;;;;;5002219;28;20226;-46
2023/11/30 01:33:45;;;;;;;1.98;1.45;;;5.70;92.60;;;;;;4996523;28;20202;-47
2023/11/30 01:36:13;;;;;;;1.90;1.60;;;5.70;92.60;;;;;;4980722;28;20215;-46
2023/11/30 01:38:42;;;;;;;3.40;2.22;;;5.70;92.70;;;;;;5001854;28;20226;-46
2023/11/30 01:41:10;;;;;;;2.60;1.75;;;5.70;92.70;;;;;;4980413;28;20265;-45
2023/11/30 01:43:41;;;;;;;2.25;1.73;;;5.70;92.70;;;;;;4989837;28;20194;-47
2023/11/30 01:46:09;;;;;;;2.85;2.00;;;5.70;92.70;;;;;;4983058;28;20215;-44
2023/11/30 01:48:38;;;;;;;2.95;2.08;;;5.70;92.70;;;;;;5004018;28;20218;-46
2023/11/30 01:51:16;;;;;;;4.07;2.78;;;5.70;92.60;;;;;;4986402;28;20222;-44
2023/11/30 01:53:44;;;;;;;2.28;1.50;;;5.70;92.60;;;;;;5006005;28;20663;-45
2023/11/30 01:56:14;;;;;;;2.10;1.90;;;5.70;92.70;;;;;;4995558;28;20688;-45
2023/11/30 01:58:45;;;;;;;2.97;2.00;;;5.70;92.60;;;;;;4986863;28;20221;-44
2023/11/30 02:01:15;;;;;;;2.97;1.83;;;5.70;92.60;;;;;;4985787;28;20229;-47
2023/11/30 02:03:43;;;;;;;2.28;1.70;;;5.70;92.60;;;;;;4986653;28;20214;-45
2023/11/30 02:06:16;;;;;;;2.13;1.80;;;5.70;92.70;;;;;;4986982;28;20221;-47
2023/11/30 02:08:44;;;;;;;2.70;2.00;;;5.70;92.60;;;;;;4988907;28;20218;-45
2023/11/30 02:11:12;;;;;;;2.78;2.17;;;5.60;92.60;;;;;;4980048;28;20230;-46
2023/11/30 02:13:40;;;;;;;3.78;2.83;;;5.70;92.60;;;;;;4987484;28;20190;-47
2023/11/30 02:16:11;;;;;;;2.05;1.55;;;5.70;92.60;;;;;;5002650;28;20584;-46
2023/11/30 02:18:39;;;;;;;3.03;2.30;;;5.70;92.60;;;;;;4982992;28;20272;-45
2023/11/30 02:21:07;;;;;;;2.60;2.25;;;5.70;92.60;;;;;;4991423;28;20277;-47
2023/11/30 02:23:37;;;;;;;3.28;2.42;;;5.60;92.70;;;;;;4987434;28;20202;-45
2023/11/30 02:26:05;;;;;;;3.38;1.98;;;5.60;92.50;;;;;;4979873;28;20265;-45
2023/11/30 02:28:33;;;;;;;2.13;1.80;;;5.60;92.70;;;;;;5003667;28;20248;-45
2023/11/30 02:31:01;;;;;;;3.08;2.42;;;5.60;92.60;;;;;;5000561;28;20215;-45
2023/11/30 02:33:29;;;;;;;2.72;2.03;;;5.60;92.70;;;;;;5002234;28;20216;-46
2023/11/30 02:35:57;;;;;;;2.88;2.58;;;5.60;92.70;;;;;;4980934;28;20229;-46
2023/11/30 02:38:25;;;;;;;2.30;1.60;;;5.60;92.60;;;;;;5002999;28;20220;-47
2023/11/30 02:40:54;;;;;;;3.42;1.98;;;5.60;92.70;;;;;;4992397;28;20219;-44
2023/11/30 02:43:23;;;;;;;2.00;1.77;;;5.60;92.60;;;;;;5004757;28;20201;-45
2023/11/30 02:45:52;;;;;;;2.70;1.80;;;5.60;92.60;;;;;;4980297;28;20249;-45
2023/11/30 02:48:20;;;;;;;2.40;1.90;;;5.60;92.60;;;;;;5001162;28;20219;-46
2023/11/30 02:50:48;;;;;;;2.80;2.22;;;5.60;92.60;;;;;;5000793;28;20738;-47
2023/11/30 02:53:16;;;;;;;2.08;1.88;;;5.60;92.60;;;;;;5003120;28;20257;-49
2023/11/30 02:55:46;;;;;;;2.92;2.00;;;5.60;92.60;;;;;;4995547;28;20294;-47
2023/11/30 02:58:16;;;;;;;3.00;2.20;;;5.60;92.60;;;;;;4987482;28;20242;-46
2023/11/30 03:00:46;;;;;;;2.33;1.80;;;5.60;92.60;;;;;;4998140;28;20256;-44
2023/11/30 03:03:17;;;;;;;2.20;1.80;;;5.60;92.60;;;;;;5003247;28;20214;-45
2023/11/30 03:05:45;;;;;;;2.75;1.90;;;5.60;92.60;;;;;;4982100;28;20226;-46
2023/11/30 03:08:13;;;;;;;3.30;2.00;;;5.60;92.60;;;;;;5002252;28;20696;-45
2023/11/30 03:10:41;;;;;;;3.20;1.90;;;5.60;92.60;;;;;;4994999;28;20793;-45
2023/11/30 03:13:09;;;;;;;2.20;1.88;;;5.60;92.60;;;;;;4997210;28;20620;-46
2023/11/30 03:15:44;;;;;;;2.30;1.85;;;5.60;92.60;;;;;;5000184;28;20272;-45
2023/11/30 03:18:12;;;;;;;2.33;1.88;;;5.60;92.60;;;;;;4999558;28;20261;-45
2023/11/30 03:20:40;;;;;;;3.03;2.65;;;5.60;93.10;;;;;;4979559;28;20242;-46
2023/11/30 03:23:08;;;;;;;3.60;2.28;;;5.60;92.60;;;;;;4999767;28;20230;-47
2023/11/30 03:25:36;;;;;;;4.00;2.42;;;5.60;92.60;;;;;;4974073;28;20223;-46
2023/11/30 03:28:05;;;;;;;1.98;1.75;;;5.60;92.60;;;;;;4996269;28;20230;-45
2023/11/30 03:30:33;;;;;;;3.08;1.85;;;5.60;92.70;;;;;;5002007;28;20313;-48
2023/11/30 03:33:02;;;;;;;2.05;1.45;;;5.60;92.70;;;;;;4999058;28;20644;-45
2023/11/30 03:35:31;;;;;;;2.63;2.20;;;5.60;92.60;;;;;;4978739;28;20310;-44
2023/11/30 03:37:59;;;;;;;2.03;1.75;;;5.60;93.10;;;;;;4999103;28;20219;-47
2023/11/30 03:40:27;;;;;;;3.88;2.08;;;5.60;92.60;;;;;;4978745;28;20268;-45
2023/11/30 03:42:55;;;;;;;3.42;2.20;;;5.60;92.60;;;;;;4982319;28;20194;-45
2023/11/30 03:45:23;;;;;;;3.17;2.40;;;5.60;92.60;;;;;;4984734;28;20571;-44
2023/11/30 03:47:51;;;;;;;2.60;1.75;;;5.60;92.60;;;;;;4987254;28;20333;-47
2023/11/30 03:50:21;;;;;;;2.60;1.85;;;5.60;92.60;;;;;;4993377;28;20249;-45
2023/11/30 03:52:49;;;;;;;2.88;1.88;;;5.60;92.50;;;;;;4984903;28;20205;-45
2023/11/30 03:55:18;;;;;;;2.38;1.98;;;5.60;92.60;;;;;;4999382;28;20233;-46
2023/11/30 03:57:46;;;;;;;3.80;2.08;;;5.60;92.60;;;;;;4998044;28;20218;-45
2023/11/30 04:00:16;;;;;;;2.13;1.75;;;5.60;92.50;;;;;;5000838;28;20313;-45
2023/11/30 04:02:44;;;;;;;2.33;1.90;;;5.60;92.60;;;;;;4994700;28;20604;-46
2023/11/30 04:05:13;;;;;;;2.22;2.03;;;5.60;92.60;;;;;;4997516;28;20760;-46
2023/11/30 04:07:43;;;;;;;2.80;2.50;;;5.60;92.60;;;;;;5025429;28;20225;-44
2023/11/30 04:10:12;;;;;;;1.95;1.52;;;5.60;92.60;;;;;;5020751;28;20241;-48
2023/11/30 04:12:41;;;;;;;2.80;1.63;;;5.50;92.50;;;;;;5015213;28;20638;-45
2023/11/30 04:15:10;;;;;;;2.25;1.67;;;5.50;92.50;;;;;;5020926;28;20228;-47
2023/11/30 04:17:38;;;;;;;2.25;1.90;;;5.60;92.60;;;;;;5022664;28;20215;-45
2023/11/30 04:20:08;;;;;;;2.35;1.85;;;5.50;92.50;;;;;;5016804;28;20233;-47
2023/11/30 04:22:36;;;;;;;2.05;1.48;;;5.60;92.60;;;;;;5023228;28;20678;-46
2023/11/30 04:25:06;;;;;;;3.90;2.10;;;5.60;93.10;;;;;;5017122;28;20754;-46
2023/11/30 04:27:34;;;;;;;2.95;1.92;;;5.60;92.60;;;;;;5015261;28;20259;-46
2023/11/30 04:30:07;;;;;;;2.25;1.55;;;5.50;92.50;;;;;;5012699;28;20194;-46
2023/11/30 04:32:38;;;;;;;2.30;1.90;;;5.50;92.50;;;;;;5022789;28;20242;-46
2023/11/30 04:35:07;;;;;;;1.98;1.77;;;5.50;92.50;;;;;;5016899;28;20209;-46
2023/11/30 04:37:35;;;;;;;3.75;2.00;;;5.60;92.60;;;;;;5026287;28;20217;-44
2023/11/30 04:40:03;;;;;;;1.67;1.30;;;5.50;92.50;;;;;;5021282;28;20194;-45
2023/11/30 04:42:32;;;;;;;2.20;1.90;;;5.50;92.50;;;;;;5018866;28;20616;-45
2023/11/30 04:45:00;;;;;;;2.58;1.88;;;5.50;92.50;;;;;;5024648;28;20241;-45
2023/11/30 04:47:28;;;;;;;1.90;1.38;;;5.50;92.50;;;;;;5017724;28;20216;-46
2023/11/30 04:49:56;;;;;;;2.53;2.33;;;5.50;92.50;;;;;;5006196;28;20201;-48
2023/11/30 04:52:24;;;;;;;2.22;1.80;;;5.50;92.50;;;;;;5024694;28;20201;-46
2023/11/30 04:54:52;;;;;;;3.38;1.98;;;5.50;92.50;;;;;;5025406;28;20601;-45
2023/11/30 04:57:23;;;;;;;3.30;1.98;;;5.50;92.50;;;;;;5017906;28;20210;-46
2023/11/30 04:59:53;;;;;;;1.95;1.60;;;5.50;92.50;;;;;;5024143;28;20193;-45
2023/11/30 05:02:21;;;;;;;2.00;1.40;;;5.50;92.50;;;;;;5025142;28;20603;-47
2023/11/30 05:04:49;;;;;;;2.50;1.80;;;5.50;92.50;;;;;;5018942;28;20196;-47
2023/11/30 05:07:23;;;;;;;2.80;1.67;;;5.50;92.50;;;;;;5023741;28;20217;-44
2023/11/30 05:09:51;;;;;;;3.22;2.30;;;5.50;92.50;;;;;;5023188;28;20651;-44
2023/11/30 05:12:22;;;;;;;2.78;1.63;;;5.50;92.50;;;;;;5017032;28;20663;-45
2023/11/30 05:14:50;;;;;;;1.83;1.63;;;5.50;92.50;;;;;;5021227;28;20774;-45
2023/11/30 05:17:19;;;;;;;2.33;1.90;;;5.50;92.50;;;;;;5025081;28;20297;-45
2023/11/30 05:19:47;;;;;;;2.40;1.70;;;5.50;92.50;;;;;;5021269;28;20279;-45
2023/11/30 05:22:15;;;;;;;2.10;1.45;;;5.50;92.50;;;;;;5024456;28;20216;-46
2023/11/30 05:24:43;;;;;;;2.55;1.80;;;5.50;92.50;;;;;;5019804;28;20281;-46
2023/11/30 05:27:11;;;;;;;1.63;1.48;;;5.50;92.50;;;;;;5014946;28;20214;-46
2023/11/30 05:29:39;;;;;;;3.00;2.08;;;5.50;92.50;;;;;;5025270;28;20250;-47
2023/11/30 05:32:07;;;;;;;1.80;1.55;;;5.50;92.50;;;;;;5023750;28;20724;-48
2023/11/30 05:34:36;;;;;;;2.80;1.95;;;5.50;92.50;;;;;;5024708;28;20201;-46
2023/11/30 05:37:04;;;;;;;2.03;1.60;;;5.50;92.50;;;;;;5017116;28;20218;-50
2023/11/30 05:39:32;;;;;;;1.95;1.60;;;5.50;92.50;;;;;;5015879;28;20610;-46
2023/11/30 05:42:00;;;;;;;2.55;2.10;;;5.50;92.50;;;;;;5012713;28;20232;-45
2023/11/30 05:44:28;;;;;;;1.98;1.40;;;5.50;92.50;;;;;;5016435;28;20555;-45
2023/11/30 05:46:56;;;;;;;2.97;2.17;;;5.50;92.50;;;;;;5022257;28;20221;-44
2023/11/30 05:49:24;;;;;;;2.60;1.83;;;5.50;92.50;;;;;;5026278;28;20224;-46
2023/11/30 05:51:54;;;;;;;2.10;1.70;;;5.50;92.50;;;;;;5014057;28;20225;-46
2023/11/30 05:54:22;;;;;;;2.58;1.55;;;5.50;92.50;;;;;;5025328;28;20318;-47
2023/11/30 05:56:50;;;;;;;2.40;2.00;;;5.50;92.50;;;;;;5015726;28;20221;-45
2023/11/30 05:59:18;;;;;;;2.53;2.17;;;5.50;92.50;;;;;;5025315;28;20265;-44
2023/11/30 06:01:46;;;;;;;2.47;2.28;;;5.50;92.50;;;;;;5024871;28;20221;-46
2023/11/30 06:04:14;;;;;;;2.88;2.15;;;5.50;92.50;;;;;;5024343;28;20194;-50
2023/11/30 06:06:42;;;;;;;2.40;1.80;;;5.50;92.50;;;;;;5021285;28;20244;-45
2023/11/30 06:09:11;;;;;;;2.20;2.00;;;5.50;92.50;;;;;;5023635;28;20256;-46
2023/11/30 06:11:43;;;;;;;2.33;1.60;;;5.50;92.50;;;;;;5016339;28;20236;-44
2023/11/30 06:14:10;;;;;;;1.80;1.38;;;5.50;92.50;;;;;;5023774;28;20614;-46
2023/11/30 06:16:38;;;;;;;2.88;1.88;;;5.50;92.50;;;;;;5025902;28;20221;-45
2023/11/30 06:19:07;;;;;;;2.53;1.60;;;5.50;92.50;;;;;;5020290;28;20580;-44
2023/11/30 06:21:35;;;;;;;3.08;1.95;;;5.50;92.50;;;;;;5024175;28;20244;-46
2023/11/30 06:24:03;;;;;;;1.75;1.55;;;5.50;92.50;;;;;;5023348;28;20181;-47
2023/11/30 06:26:32;;;;;;;2.45;1.60;;;5.50;92.50;;;;;;5018465;28;20205;-45
2023/11/30 06:29:02;;;;;;;2.30;1.95;;;5.50;92.50;;;;;;5019161;28;20221;-44
2023/11/30 06:31:30;;;;;;;1.70;1.30;;;5.50;92.50;;;;;;5014893;28;20213;-45
2023/11/30 06:33:58;;;;;;;2.10;1.60;;;5.50;92.50;;;;;;5023223;28;20197;-46
2023/11/30 06:36:26;;;;;;;2.42;2.20;;;5.40;92.50;;;;;;5017955;28;20288;-45
2023/11/30 06:38:54;;;;;;;2.35;1.77;;;5.40;92.50;;;;;;5023419;28;20698;-46
2023/11/30 06:41:22;;;;;;;2.17;1.90;;;5.50;92.50;;;;;;5010343;28;20306;-46
2023/11/30 06:43:52;;;;;;;2.33;1.80;;;5.50;92.50;;;;;;5020125;28;20205;-45
2023/11/30 06:46:21;;;;;;;2.53;1.70;;;5.50;92.50;;;;;;5019338;28;20273;-45
2023/11/30 06:48:50;;;;;;;2.40;1.88;;;5.50;92.50;;;;;;5022900;28;20252;-44
2023/11/30 06:51:19;;;;;;;2.17;1.70;;;5.40;92.50;;;;;;5018832;28;20308;-45
2023/11/30 06:53:47;;;;;;;2.97;2.15;;;5.50;92.50;;;;;;5024617;28;20323;-46
2023/11/30 06:56:17;;;;;;;3.03;2.33;;;5.40;92.50;;;;;;5010301;28;20256;-45
2023/11/30 06:58:45;;;;;;;2.20;1.60;;;5.40;92.50;;;;;;5019593;28;20308;-44
2023/11/30 07:01:14;;;;;;;2.53;1.98;;;5.40;92.50;;;;;;5022424;28;20236;-44
2023/11/30 07:03:43;;;;;;;1.75;1.42;;;5.40;92.50;;;;;;5012473;28;20655;-49
2023/11/30 07:06:11;;;;;;;2.22;1.65;;;5.40;92.50;;;;;;5022824;28;20225;-44
2023/11/30 07:08:40;;;;;;;3.53;1.85;;;5.40;92.50;;;;;;5019079;28;20221;-44
2023/11/30 07:11:11;;;;;;;2.95;1.88;;;5.40;92.50;;;;;;5005968;28;20309;-44
2023/11/30 07:13:39;;;;;;;2.08;1.70;;;5.40;92.50;;;;;;5026652;28;20201;-46
2023/11/30 07:16:08;;;;;;;2.10;1.90;;;5.40;92.50;;;;;;5022157;28;20272;-46
2023/11/30 07:18:37;;;;;;;3.03;2.00;;;5.40;92.50;;;;;;5020377;28;20229;-43
2023/11/30 07:21:12;;;;;;;2.17;1.50;;;5.40;92.50;;;;;;5009523;28;20244;-43
2023/11/30 07:23:40;;;;;;;2.42;1.88;;;5.40;92.50;;;;;;5022798;28;20586;-44
2023/11/30 07:26:11;;;;;;;2.50;2.00;;;5.40;92.50;;;;;;5008647;28;20214;-46
2023/11/30 07:28:39;;;;;;;2.10;1.52;;;5.40;92.50;;;;;;5017664;28;20217;-46
2023/11/30 07:31:07;;;;;;;2.85;1.90;;;5.40;92.50;;;;;;5019837;28;20274;-46
2023/11/30 07:33:38;;;;;;;2.55;2.10;;;5.40;92.50;;;;;;5022791;28;20282;-45
2023/11/30 07:36:08;;;;;;;2.17;1.40;;;5.40;92.50;;;;;;5013364;28;20237;-45
2023/11/30 07:38:39;;;;;;;2.80;2.03;;;5.40;92.50;;;;;;5019207;28;20221;-47
2023/11/30 07:41:08;;;;;;;3.55;2.67;;;5.40;92.50;;;;;;5011578;28;20646;-44
2023/11/30 07:43:36;;;;;;;4.18;3.45;;;5.40;92.50;;;;;;5019161;28;20212;-44
2023/11/30 07:46:05;;;;;;;2.75;2.42;;;5.40;92.60;;;;;;5021865;28;20240;-44
2023/11/30 07:48:33;;;;;;;4.75;3.40;;;5.40;92.60;;;;;;5011292;28;20237;-46
2023/11/30 07:51:03;;;;;;;3.92;2.97;;;5.30;92.60;;;;;;5018006;28;20219;-46
2023/11/30 07:53:31;;;;;;;3.00;1.90;;;5.30;92.60;;;;;;4995086;28;20189;-47
2023/11/30 07:56:00;;;;;;;4.22;2.65;;;5.30;92.70;;;;;;5015825;28;20715;-43
2023/11/30 07:58:28;;;;;;;2.20;2.00;;;5.30;92.60;;;;;;5017395;28;20245;-45
2023/11/30 08:00:57;;;;;;;3.67;3.05;;;5.30;92.70;;;;;;5020980;28;20316;-46
2023/11/30 08:03:27;;;;;;;3.90;2.90;;;5.30;92.70;;;;;;5017764;28;20563;-45
2023/11/30 08:05:55;;;;;;;3.10;2.40;;;5.30;92.70;;;;;;5019948;28;20789;-43
2023/11/30 08:08:25;;;;;;;3.67;2.40;;;5.30;92.70;;;;;;5019988;28;20505;-43
2023/11/30 08:10:53;;;;;;;2.70;2.20;;;5.30;92.70;;;;;;5013510;28;20265;-44
2023/11/30 08:13:23;;;;;;;2.25;1.90;;;5.30;92.70;;;;;;5021940;28;20284;-43
2023/11/30 08:15:51;;;;;;;3.05;1.90;;;5.30;92.70;;;;;;5024326;28;20279;-44
2023/11/30 08:18:24;;;;;;;3.13;2.10;;;5.30;92.70;;;;;;5009028;28;20217;-44
2023/11/30 08:20:54;;;;;;;3.15;2.85;;;5.30;92.60;;;;;;5019655;28;20244;-44
2023/11/30 08:23:22;;;;;;;2.90;2.30;;;5.30;92.60;;;;;;5019704;28;20198;-47
2023/11/30 08:25:51;;;;;;;3.63;2.55;;;5.30;92.60;;;;;;5012633;28;20214;-44
2023/11/30 08:28:23;;;;;;;3.05;2.25;;;5.30;92.60;;;;;;5014529;28;20225;-43
2023/11/30 08:30:51;;;;;;;2.95;2.03;;;5.30;92.60;;;;;;5016983;28;20221;-45
2023/11/30 08:33:19;;;;;;;3.03;2.30;;;5.30;92.60;;;;;;5022272;28;20186;-48
2023/11/30 08:35:48;;;;;;;3.22;2.30;;;5.30;92.80;;;;;;5016927;28;20239;-45
2023/11/30 08:38:16;;;;;;;3.75;3.03;;;5.30;92.70;;;;;;5019638;28;20276;-44
2023/11/30 08:40:44;;;;;;;2.70;2.22;;;5.30;92.90;;;;;;5008955;28;20210;-46
2023/11/30 08:43:15;;;;;;;2.85;2.22;;;5.30;92.80;;;;;;5017853;28;20228;-47
2023/11/30 08:45:43;;;;;;;3.72;2.72;;;5.30;92.80;;;;;;5014098;28;20280;-44
2023/11/30 08:48:12;;;;;;;4.35;2.60;;;5.30;92.80;;;;;;5014823;28;20615;-45
2023/11/30 08:50:40;;;;;;;4.75;2.42;;;5.30;92.80;;;;;;5011909;28;20248;-44
2023/11/30 08:53:08;;;;;;;2.90;2.30;;;5.30;92.80;;;;;;5015670;28;20190;-44
2023/11/30 08:55:36;;;;;;;2.70;1.73;;;5.30;92.80;;;;;;5016802;28;20233;-45
2023/11/30 08:58:05;;;;;;;2.30;1.88;;;5.30;92.80;;;;;;5015331;28;20245;-45
2023/11/30 09:00:35;;;;;;;2.22;1.88;;;5.30;92.80;;;;;;5023910;28;20228;-45
2023/11/30 09:03:03;;;;;;;3.78;2.13;;;5.30;92.80;;;;;;5015620;28;20225;-46
2023/11/30 09:05:31;;;;;;;2.90;2.17;;;5.30;92.80;;;;;;5016038;28;20225;-46
2023/11/30 09:07:59;;;;;;;5.10;3.38;;;5.30;92.80;;;;;;5012731;28;20230;-43
2023/11/30 09:10:28;;;;;;;3.80;2.17;;;5.30;92.90;;;;;;5018807;28;20300;-49
2023/11/30 09:12:56;;;;;;;2.67;2.22;;;5.30;92.90;;;;;;5017381;28;20197;-43
2023/11/30 09:15:24;;;;;;;2.47;1.90;;;5.30;92.80;;;;;;5025552;28;20248;-43
2023/11/30 09:17:56;;;;;;;4.45;2.50;;;5.30;92.80;;;;;;5017687;28;20221;-45
2023/11/30 09:20:24;;;;;;;3.20;2.22;;;5.30;92.80;;;;;;5010538;28;20686;-43
2023/11/30 09:22:53;;;;;;;3.33;2.15;;;5.30;92.80;;;;;;4998546;28;20207;-46
2023/11/30 09:25:21;;;;;;;3.45;2.20;;;5.30;92.80;;;;;;5011053;28;20194;-45
2023/11/30 09:27:49;;;;;;;2.30;1.73;;;5.30;92.80;;;;;;4995339;28;20280;-46
2023/11/30 09:30:17;;;;;;;2.40;1.67;;;5.30;92.80;;;;;;5019758;28;20473;-46
2023/11/30 09:32:46;;;;;;;3.20;2.10;;;5.30;92.70;;;;;;5023154;28;20221;-45
2023/11/30 09:35:15;;;;;;;2.22;1.90;;;5.30;92.70;;;;;;5019086;28;20206;-44
2023/11/30 09:37:44;;;;;;;3.15;1.75;;;5.30;92.70;;;;;;5014370;28;20245;-46
2023/11/30 09:40:13;;;;;;;3.88;1.90;;;5.30;92.70;;;;;;5021775;28;20260;-50
2023/11/30 09:42:41;;;;;;;2.97;2.33;;;5.30;92.70;;;;;;5019227;28;20229;-45
2023/11/30 09:45:10;;;;;;;2.78;1.90;;;5.30;92.70;;;;;;5022329;28;20194;-45
2023/11/30 09:47:38;;;;;;;2.13;1.63;;;5.30;92.70;;;;;;5013691;28;20514;-45
2023/11/30 09:50:08;;;;;;;2.17;1.90;;;5.30;92.70;;;;;;5010664;28;20256;-44
2023/11/30 09:52:38;;;;;;;2.20;1.70;;;5.30;92.60;;;;;;5021588;28;20287;-44
2023/11/30 09:55:08;;;;;;;3.63;1.80;;;5.30;92.60;;;;;;5011861;28;20213;-43
2023/11/30 09:57:39;;;;;;;3.60;1.85;;;5.30;92.60;;;;;;5014007;28;20248;-43
2023/11/30 10:00:09;;;;;;;3.40;2.33;;;5.30;92.60;;;;;;5015173;28;20239;-46
2023/11/30 10:02:38;;;;;;;1.90;1.63;;;5.30;92.60;;;;;;5022775;28;20224;-47
2023/11/30 10:05:09;;;;;;;1.98;1.60;;;5.30;92.60;;;;;;5012826;28;20202;-45
2023/11/30 10:07:38;;;;;;;3.10;2.00;;;5.30;92.70;;;;;;5022069;28;20237;-45
2023/11/30 10:10:08;;;;;;;2.83;1.58;;;5.30;92.70;;;;;;5022904;28;20194;-45
2023/11/30 10:12:37;;;;;;;2.17;1.30;;;5.30;92.60;;;;;;5017171;28;20594;-46
2023/11/30 10:15:05;;;;;;;2.65;1.55;;;5.30;92.60;;;;;;5025037;28;20642;-46
2023/11/30 10:17:34;;;;;;;2.25;1.95;;;5.30;92.60;;;;;;5024528;28;20217;-46
2023/11/30 10:20:04;;;;;;;2.88;1.98;;;5.30;92.60;;;;;;5008816;28;20252;-46
2023/11/30 10:22:32;;;;;;;2.10;1.65;;;5.30;92.60;;;;;;5020699;28;20637;-46
2023/11/30 10:25:02;;;;;;;2.17;1.58;;;5.30;92.60;;;;;;5025450;28;20231;-47
2023/11/30 10:27:32;;;;;;;1.83;1.52;;;5.30;92.60;;;;;;5011121;28;20225;-46
2023/11/30 10:30:03;;;;;;;3.88;2.15;;;5.30;92.60;;;;;;5023745;28;20240;-45
2023/11/30 10:32:34;;;;;;;3.47;2.10;;;5.30;92.60;;;;;;5010463;28;20220;-45
2023/11/30 10:35:06;;;;;;;2.50;1.60;;;5.30;92.60;;;;;;5009693;28;20201;-46
2023/11/30 10:37:41;;;;;;;2.35;1.70;;;5.30;92.60;;;;;;5018056;28;20320;-47
2023/11/30 10:40:16;;;;;;;2.97;1.90;;;5.30;92.60;;;;;;5016423;28;20197;-45
2023/11/30 10:42:48;;;;;;;1.77;1.42;;;5.30;92.60;;;;;;5021652;28;20594;-46
2023/11/30 10:45:15;;;;;;;2.00;1.80;;;5.30;92.60;;;;;;5023888;28;20671;-43
2023/11/30 10:47:43;;;;;;;2.22;1.42;;;5.30;92.60;;;;;;5026683;28;20225;-43
2023/11/30 10:50:12;;;;;;;2.03;1.50;;;5.30;92.50;;;;;;5022791;28;20194;-44
2023/11/30 10:52:45;;;;;;;2.60;1.92;;;5.30;92.60;;;;;;5018383;28;20302;-44
2023/11/30 10:55:19;;;;;;;2.50;1.52;;;5.30;92.50;;;;;;5024493;28;20217;-48
2023/11/30 10:57:48;;;;;;;2.28;1.52;;;5.30;92.60;;;;;;5020755;28;20228;-44
2023/11/30 11:00:17;;;;;;;1.98;1.60;;;5.30;92.60;;;;;;5019932;28;20190;-43
2023/11/30 11:02:47;;;;;;;2.30;1.80;;;5.30;92.50;;;;;;5023972;28;20275;-44
2023/11/30 11:05:19;;;;;;;2.53;2.15;;;5.30;92.60;;;;;;5016778;28;20660;-43
2023/11/30 11:07:50;;;;;;;2.15;1.80;;;5.30;92.60;;;;;;5023546;28;20792;-44
2023/11/30 11:10:23;;;;;;;2.20;1.70;;;5.30;92.60;;;;;;5021723;28;20225;-48
2023/11/30 11:12:52;;;;;;;1.70;1.30;;;5.30;92.60;;;;;;5023339;28;20233;-44
2023/11/30 11:15:21;;;;;;;3.60;1.42;;;5.30;92.50;;;;;;5015094;28;20197;-44
2023/11/30 11:17:51;;;;;;;2.58;1.65;;;5.30;92.50;;;;;;5023203;28;20694;-43
2023/11/30 11:20:21;;;;;;;2.55;1.77;;;5.30;92.50;;;;;;5019184;28;20202;-48
2023/11/30 11:22:54;;;;;;;1.75;1.35;;;5.30;92.60;;;;;;5023307;28;20225;-44
2023/11/30 11:25:26;;;;;;;1.77;1.40;;;5.30;92.60;;;;;;5021389;28;20311;-45
2023/11/30 11:27:54;;;;;;;2.20;1.60;;;5.30;92.60;;;;;;5018167;28;20475;-45
2023/11/30 11:30:26;;;;;;;2.30;1.80;;;5.30;92.60;;;;;;5023761;28;20314;-45
2023/11/30 11:32:57;;;;;;;4.68;1.85;;;5.30;92.60;;;;;;5019927;28;20605;-44
2023/11/30 11:35:29;;;;;;;2.55;1.75;;;5.30;92.60;;;;;;5010469;28;20675;-45
2023/11/30 11:37:58;;;;;;;2.58;1.65;;;5.30;92.60;;;;;;5022945;28;20472;-47
2023/11/30 11:40:28;;;;;;;1.38;1.17;;;5.30;92.60;;;;;;5012439;28;20193;-43
2023/11/30 11:42:56;;;;;;;2.30;1.73;;;5.30;92.60;;;;;;5015438;28;20274;-44
2023/11/30 11:45:24;;;;;;;2.53;1.63;;;5.30;92.60;;;;;;5025856;28;20209;-44
2023/11/30 11:47:53;;;;;;;2.72;2.00;;;5.30;92.70;;;;;;5024116;28;20260;-43
2023/11/30 11:50:21;;;;;;;2.67;1.80;;;5.30;92.60;;;;;;5020259;28;20201;-44
2023/11/30 11:52:49;;;;;;;2.30;1.50;;;5.30;92.60;;;;;;5021887;28;20233;-45
2023/11/30 11:55:18;;;;;;;2.05;1.60;;;5.30;92.60;;;;;;5017786;28;20205;-44
2023/11/30 11:57:47;;;;;;;2.05;1.60;;;5.30;92.60;;;;;;5018438;28;20303;-45
2023/11/30 12:00:17;;;;;;;2.15;1.40;;;5.30;92.60;;;;;;5022920;28;20728;-45
2023/11/30 12:02:46;;;;;;;3.90;1.50;;;5.30;92.60;;;;;;5023540;28;20255;-46
2023/11/30 12:05:16;;;;;;;2.20;1.77;;;5.30;92.60;;;;;;5008648;28;20209;-44
2023/11/30 12:07:49;;;;;;;2.38;1.50;;;5.30;92.60;;;;;;5013612;28;20798;-44
2023/11/30 12:10:31;;;;;;;2.22;1.45;;;5.30;92.60;;;;;;5017746;28;20204;-46
2023/11/30 12:13:02;;;;;;;2.13;1.60;;;5.30;92.60;;;;;;5022085;28;20224;-44
2023/11/30 12:15:30;;;;;;;2.67;1.80;;;5.30;92.60;;;;;;5012061;28;20190;-45
2023/11/30 12:17:58;;;;;;;2.30;1.70;;;5.30;92.60;;;;;;5021811;28;20232;-46
2023/11/30 12:20:26;;;;;;;2.05;1.60;;;5.30;93.10;;;;;;5017485;28;20200;-44
2023/11/30 12:22:55;;;;;;;2.40;1.95;;;5.30;92.60;;;;;;5022405;28;20224;-44
2023/11/30 12:25:25;;;;;;;1.90;1.60;;;5.30;92.60;;;;;;5022803;28;20558;-43
2023/11/30 12:27:53;;;;;;;2.80;1.80;;;5.30;92.60;;;;;;5015796;28;20225;-45
2023/11/30 12:30:23;;;;;;;2.55;1.70;;;5.30;92.60;;;;;;5016989;28;20186;-44
2023/11/30 12:32:52;;;;;;;2.42;1.95;;;5.30;92.60;;;;;;5021235;28;20654;-45
2023/11/30 12:35:20;;;;;;;1.90;1.45;;;5.30;92.60;;;;;;5013925;28;20216;-48
2023/11/30 12:37:49;;;;;;;2.00;1.67;;;5.30;92.60;;;;;;5020168;28;20702;-45
2023/11/30 12:40:17;;;;;;;1.73;1.50;;;5.30;92.70;;;;;;5019371;28;20190;-48
2023/11/30 12:42:47;;;;;;;3.17;2.00;;;5.30;92.60;;;;;;5016325;28;20221;-47
2023/11/30 12:45:15;;;;;;;2.72;1.83;;;5.30;92.60;;;;;;5024588;28;20190;-44
2023/11/30 12:47:45;;;;;;;1.95;1.75;;;5.30;93.10;;;;;;5025571;28;20233;-43
2023/11/30 12:50:14;;;;;;;2.60;1.70;;;5.30;92.60;;;;;;5014406;28;20252;-44
2023/11/30 12:52:42;;;;;;;1.42;1.30;;;5.30;92.60;;;;;;5019445;28;20329;-46
2023/11/30 12:55:10;;;;;;;2.50;1.45;;;5.30;92.60;;;;;;5021418;28;20292;-49
2023/11/30 12:57:39;;;;;;;2.20;1.42;;;5.30;92.60;;;;;;5015166;28;20645;-43
2023/11/30 13:00:14;;;;;;;2.20;1.83;;;5.30;92.60;;;;;;5027705;28;20229;-44
2023/11/30 13:02:47;;;;;;;2.67;1.67;;;5.30;93.10;;;;;;5027532;28;20253;-43
2023/11/30 13:05:15;;;;;;;2.83;1.80;;;5.30;92.60;;;;;;5019543;28;20752;-45
2023/11/30 13:07:43;;;;;;;3.05;1.65;;;5.30;92.60;;;;;;5027008;28;20225;-44